createdAt,value
2018-08-13T00:02:19.927Z,2.80
2018-08-13T00:04:48.133Z,2.80
2018-08-13T00:07:16.314Z,2.93
2018-08-13T00:09:45.058Z,2.30
2018-08-13T00:12:13.915Z,3.40
2018-08-13T00:14:42.093Z,2.63
2018-08-13T00:17:10.377Z,2.60
2018-08-13T00:19:38.657Z,3.50
2018-08-13T00:22:06.847Z,3.33
2018-08-13T00:24:35.036Z,3.33
2018-08-13T00:27:03.353Z,2.67
2018-08-13T00:29:31.588Z,2.50
2018-08-13T00:31:59.780Z,3.43
2018-08-13T00:34:27.969Z,3.27
2018-08-13T00:36:56.139Z,3.30
2018-08-13T00:39:24.332Z,3.60
2018-08-13T00:41:52.524Z,3.27
2018-08-13T00:44:20.717Z,2.80
2018-08-13T00:46:48.913Z,2.93
2018-08-13T00:49:17.092Z,2.93
2018-08-13T00:51:45.279Z,2.73
2018-08-13T00:54:13.447Z,3.50
2018-08-13T00:56:41.637Z,3.00
2018-08-13T00:59:09.859Z,2.90
2018-08-13T01:01:38.130Z,3.00
2018-08-13T01:04:06.393Z,3.23
2018-08-13T01:06:34.575Z,2.93
2018-08-13T01:09:02.787Z,3.30
2018-08-13T01:11:30.980Z,3.43
2018-08-13T01:13:59.238Z,3.83
2018-08-13T01:16:27.419Z,4.87
2018-08-13T01:18:55.606Z,5.03
2018-08-13T01:21:23.766Z,4.77
2018-08-13T01:23:52.000Z,4.10
2018-08-13T01:26:20.191Z,4.13
2018-08-13T01:28:48.375Z,3.87
2018-08-13T01:31:16.571Z,3.70
2018-08-13T01:33:44.754Z,3.77
2018-08-13T01:36:12.943Z,3.47
2018-08-13T01:38:41.135Z,3.60
2018-08-13T01:41:09.409Z,4.20
2018-08-13T01:43:37.596Z,3.90
2018-08-13T01:46:05.788Z,4.50
2018-08-13T01:48:33.967Z,3.90
2018-08-13T01:51:02.142Z,4.53
2018-08-13T01:53:30.356Z,4.60
2018-08-13T01:55:58.700Z,4.37
2018-08-13T01:58:26.883Z,3.47
2018-08-13T02:00:55.071Z,3.77
2018-08-13T02:03:23.268Z,4.83
2018-08-13T02:05:51.471Z,3.97
2018-08-13T02:08:19.654Z,4.30
2018-08-13T02:10:47.880Z,4.50
2018-08-13T02:13:16.070Z,3.57
2018-08-13T02:15:44.302Z,5.03
2018-08-13T02:18:12.510Z,4.10
2018-08-13T02:20:40.699Z,3.80
2018-08-13T02:23:08.924Z,4.27
2018-08-13T02:25:37.124Z,3.57
2018-08-13T02:28:05.402Z,4.27
2018-08-13T02:30:33.591Z,3.80
2018-08-13T02:33:01.785Z,3.30
2018-08-13T02:35:29.954Z,4.40
2018-08-13T02:37:58.147Z,4.10
2018-08-13T02:40:26.332Z,4.90
2018-08-13T02:42:54.519Z,4.17
2018-08-13T02:45:22.720Z,4.83
2018-08-13T02:47:50.932Z,3.60
2018-08-13T02:50:19.131Z,4.27
2018-08-13T02:52:47.803Z,3.83
2018-08-13T02:55:16.009Z,4.13
2018-08-13T02:57:44.181Z,4.20
2018-08-13T03:00:12.632Z,4.00
2018-08-13T03:02:41.176Z,3.73
2018-08-13T03:05:11.479Z,3.87
2018-08-13T03:07:39.939Z,4.10
2018-08-13T03:10:10.159Z,4.43
2018-08-13T03:12:38.590Z,4.67
2018-08-13T03:15:09.728Z,4.00
2018-08-13T03:17:37.904Z,4.03
2018-08-13T03:20:06.735Z,5.10
2018-08-13T03:22:34.910Z,5.03
2018-08-13T03:25:03.153Z,4.50
2018-08-13T03:27:31.355Z,4.07
2018-08-13T03:30:00.526Z,4.90
2018-08-13T03:32:28.844Z,4.30
2018-08-13T03:34:57.015Z,4.33
2018-08-13T03:37:25.187Z,5.73
2018-08-13T03:39:53.359Z,4.97
2018-08-13T03:42:21.535Z,4.37
2018-08-13T03:44:49.732Z,5.53
2018-08-13T03:47:17.920Z,6.00
2018-08-13T03:49:46.099Z,4.97
2018-08-13T03:52:14.287Z,4.60
2018-08-13T03:54:42.468Z,5.20
2018-08-13T03:57:10.647Z,4.43
2018-08-13T03:59:38.811Z,5.03
2018-08-13T04:02:06.999Z,5.13
2018-08-13T04:04:35.192Z,4.77
2018-08-13T04:07:03.376Z,5.83
2018-08-13T04:09:31.577Z,5.00
2018-08-13T04:11:59.754Z,5.70
2018-08-13T04:14:27.966Z,4.20
2018-08-13T04:17:00.596Z,5.20
2018-08-13T04:19:29.167Z,4.73
2018-08-13T04:21:57.340Z,4.83
2018-08-13T04:24:25.568Z,5.20
2018-08-13T04:26:53.727Z,5.20
2018-08-13T04:29:21.890Z,5.67
2018-08-13T04:31:50.079Z,4.80
2018-08-13T04:34:18.258Z,4.40
2018-08-13T04:36:46.457Z,4.87
2018-08-13T04:39:14.647Z,5.70
2018-08-13T04:41:44.679Z,4.87
2018-08-13T04:44:13.347Z,4.73
2018-08-13T04:46:41.548Z,5.23
2018-08-13T04:49:09.757Z,4.70
2018-08-13T04:51:37.961Z,5.83
2018-08-13T04:54:06.137Z,6.43
2018-08-13T04:56:34.314Z,5.83
2018-08-13T04:59:02.556Z,6.77
2018-08-13T05:01:30.704Z,6.87
2018-08-13T05:03:58.922Z,6.80
2018-08-13T05:06:27.176Z,6.63
2018-08-13T05:08:55.334Z,7.10
2018-08-13T05:11:23.548Z,8.60
2018-08-13T05:13:51.707Z,6.30
2018-08-13T05:16:19.924Z,5.83
2018-08-13T05:18:48.103Z,6.77
2018-08-13T05:21:16.339Z,8.60
2018-08-13T05:23:44.586Z,6.30
2018-08-13T05:26:12.783Z,6.47
2018-08-13T05:28:40.970Z,6.10
2018-08-13T05:31:09.203Z,6.50
2018-08-13T05:33:37.380Z,6.20
2018-08-13T05:36:05.697Z,7.00
2018-08-13T05:38:34.022Z,5.77
2018-08-13T05:41:02.199Z,6.57
2018-08-13T05:43:30.377Z,6.03
2018-08-13T05:45:58.557Z,6.90
2018-08-13T05:48:26.719Z,6.30
2018-08-13T05:50:54.911Z,6.00
2018-08-13T05:53:23.099Z,7.10
2018-08-13T05:55:51.283Z,5.63
2018-08-13T05:58:19.468Z,6.13
2018-08-13T06:00:47.692Z,6.27
2018-08-13T06:03:15.886Z,4.90
2018-08-13T06:05:44.080Z,5.23
2018-08-13T06:08:12.265Z,5.50
2018-08-13T06:10:40.448Z,5.77
2018-08-13T06:13:08.817Z,5.97
2018-08-13T06:15:36.996Z,5.40
2018-08-13T06:18:05.790Z,6.50
2018-08-13T06:20:33.971Z,5.50
2018-08-13T06:23:02.188Z,6.27
2018-08-13T06:25:30.389Z,7.30
2018-08-13T06:27:58.572Z,7.47
2018-08-13T06:30:26.759Z,5.43
2018-08-13T06:32:54.964Z,6.00
2018-08-13T06:35:23.148Z,6.83
2018-08-13T06:37:51.327Z,7.47
2018-08-13T06:40:19.520Z,7.63
2018-08-13T06:42:47.741Z,7.87
2018-08-13T06:45:15.915Z,7.27
2018-08-13T06:47:44.308Z,8.20
2018-08-13T06:50:13.468Z,7.40
2018-08-13T06:52:41.719Z,9.00
2018-08-13T06:55:10.140Z,8.40
2018-08-13T06:57:38.328Z,8.00
2018-08-13T07:00:08.212Z,8.40
2018-08-13T07:02:36.562Z,8.83
2018-08-13T07:05:05.759Z,7.63
2018-08-13T07:07:33.970Z,8.13
2018-08-13T07:10:02.268Z,8.33
2018-08-13T07:12:30.468Z,9.07
2018-08-13T07:14:58.790Z,8.47
2018-08-13T07:17:27.014Z,8.43
2018-08-13T07:19:55.217Z,7.23
2018-08-13T07:22:23.459Z,6.73
2018-08-13T07:24:51.614Z,6.77
2018-08-13T07:27:19.824Z,8.90
2018-08-13T07:29:48.003Z,6.00
2018-08-13T07:32:16.207Z,6.47
2018-08-13T07:34:44.394Z,5.17
2018-08-13T07:37:12.590Z,5.87
2018-08-13T07:39:40.809Z,6.10
2018-08-13T07:42:09.025Z,5.47
2018-08-13T07:44:37.252Z,4.90
2018-08-13T07:47:05.455Z,5.20
2018-08-13T07:49:33.635Z,4.40
2018-08-13T07:52:01.860Z,4.80
2018-08-13T07:54:30.052Z,4.57
2018-08-13T07:56:58.259Z,6.30
2018-08-13T07:59:26.447Z,5.90
2018-08-13T08:01:54.657Z,4.23
2018-08-13T08:04:22.846Z,5.00
2018-08-13T08:06:51.036Z,3.93
2018-08-13T08:09:19.312Z,5.60
2018-08-13T08:11:47.433Z,4.43
2018-08-13T08:14:15.628Z,5.93
2018-08-13T08:16:43.828Z,5.27
2018-08-13T08:19:12.024Z,5.17
2018-08-13T08:21:40.220Z,4.50
2018-08-13T08:24:08.399Z,6.63
2018-08-13T08:26:36.616Z,4.83
2018-08-13T08:29:06.209Z,4.70
2018-08-13T08:31:34.381Z,5.00
2018-08-13T08:34:02.559Z,5.47
2018-08-13T08:36:30.748Z,5.00
2018-08-13T08:38:58.944Z,6.40
2018-08-13T08:41:27.154Z,6.40
2018-08-13T08:43:55.370Z,6.23
2018-08-13T08:46:23.550Z,6.70
2018-08-13T08:48:51.742Z,5.00
2018-08-13T08:51:19.968Z,7.07
2018-08-13T08:53:48.156Z,6.10
2018-08-13T08:56:16.348Z,6.17
2018-08-13T08:58:45.125Z,7.50
2018-08-13T09:01:13.325Z,7.90
2018-08-13T09:03:41.526Z,9.17
2018-08-13T09:06:09.725Z,12.17
2018-08-13T09:08:37.927Z,10.53
2018-08-13T09:11:06.332Z,13.07
2018-08-13T09:13:34.511Z,12.67
2018-08-13T09:16:02.727Z,13.13
2018-08-13T09:18:42.495Z,15.23
2018-08-13T09:21:22.364Z,15.53
2018-08-13T09:24:01.992Z,14.23
2018-08-13T09:26:41.535Z,12.60
2018-08-13T09:29:21.186Z,11.07
2018-08-13T09:32:18.341Z,10.43
2018-08-13T09:34:53.684Z,8.87
2018-08-13T09:37:21.991Z,8.30
2018-08-13T09:39:50.238Z,6.90
2018-08-13T09:42:18.391Z,6.57
2018-08-13T09:44:46.571Z,5.90
2018-08-13T09:47:14.795Z,5.37
2018-08-13T09:49:42.980Z,4.77
2018-08-13T09:52:11.211Z,4.03
2018-08-13T09:54:39.411Z,5.43
2018-08-13T09:57:07.678Z,5.90
2018-08-13T09:59:35.875Z,5.13
2018-08-13T10:02:04.084Z,5.30
2018-08-13T10:04:32.267Z,6.93
2018-08-13T10:07:00.471Z,6.97
2018-08-13T10:09:28.716Z,6.50
2018-08-13T10:11:56.844Z,7.03
2018-08-13T10:14:25.068Z,7.30
2018-08-13T10:16:53.322Z,6.50
2018-08-13T10:19:21.428Z,5.73
2018-08-13T10:21:49.610Z,6.37
2018-08-13T10:24:17.810Z,6.20
2018-08-13T10:26:46.036Z,5.87
2018-08-13T10:29:14.220Z,6.73
2018-08-13T10:31:42.411Z,7.23
2018-08-13T10:34:10.629Z,6.27
2018-08-13T10:36:38.807Z,6.73
2018-08-13T10:39:08.567Z,7.07
2018-08-13T10:41:36.803Z,7.07
2018-08-13T10:44:06.012Z,7.50
2018-08-13T10:46:34.239Z,6.93
2018-08-13T10:49:02.435Z,7.33
2018-08-13T10:51:30.672Z,7.30
2018-08-13T10:53:58.956Z,7.20
2018-08-13T10:56:27.185Z,7.20
2018-08-13T10:58:55.391Z,7.27
2018-08-13T11:01:23.668Z,6.27
2018-08-13T11:03:52.486Z,6.80
2018-08-13T11:06:20.742Z,6.40
2018-08-13T11:08:48.934Z,5.93
2018-08-13T11:11:17.126Z,5.93
2018-08-13T11:13:45.324Z,6.37
2018-08-13T11:16:13.567Z,5.60
2018-08-13T11:18:41.763Z,5.70
2018-08-13T11:21:10.094Z,6.80
2018-08-13T11:23:38.277Z,5.90
2018-08-13T11:26:06.534Z,6.30
2018-08-13T11:28:34.720Z,4.90
2018-08-13T11:31:02.913Z,5.93
2018-08-13T11:33:31.109Z,6.80
2018-08-13T11:35:59.279Z,5.60
2018-08-13T11:38:27.464Z,6.23
2018-08-13T11:40:55.650Z,6.33
2018-08-13T11:43:23.845Z,5.33
2018-08-13T11:45:52.015Z,5.80
2018-08-13T11:48:20.205Z,5.07
2018-08-13T11:50:49.352Z,2.67
2018-08-13T11:53:17.563Z,2.47
2018-08-13T11:55:45.784Z,1.87
2018-08-13T11:58:13.984Z,1.80
2018-08-13T12:00:42.223Z,1.93
2018-08-13T12:03:10.459Z,2.03
2018-08-13T12:05:38.708Z,1.93
2018-08-13T12:08:06.965Z,2.57
2018-08-13T12:10:35.162Z,2.30
2018-08-13T12:13:03.350Z,2.97
2018-08-13T12:15:31.581Z,4.70
2018-08-13T12:17:59.786Z,3.57
2018-08-13T12:20:27.968Z,3.17
2018-08-13T12:22:56.142Z,4.63
2018-08-13T12:25:25.744Z,4.53
2018-08-13T12:27:54.318Z,3.00
2018-08-13T12:30:22.503Z,3.57
2018-08-13T12:32:51.065Z,3.00
2018-08-13T12:35:19.855Z,5.23
2018-08-13T12:37:48.054Z,3.47
2018-08-13T12:40:16.249Z,3.23
2018-08-13T12:42:44.432Z,4.10
2018-08-13T12:45:15.632Z,3.67
2018-08-13T12:47:43.921Z,3.87
2018-08-13T12:50:13.616Z,3.93
2018-08-13T12:52:42.719Z,4.23
2018-08-13T12:55:11.269Z,3.97
2018-08-13T12:57:39.465Z,3.60
2018-08-13T13:00:11.096Z,4.20
2018-08-13T13:02:39.705Z,4.30
2018-08-13T13:05:09.274Z,3.87
2018-08-13T13:07:37.791Z,3.73
2018-08-13T13:10:07.290Z,3.30
2018-08-13T13:12:42.635Z,4.27
2018-08-13T13:15:12.428Z,4.00
2018-08-13T13:17:40.668Z,3.47
2018-08-13T13:20:12.629Z,3.37
2018-08-13T13:22:40.887Z,3.47
2018-08-13T13:25:09.122Z,3.47
2018-08-13T13:27:38.036Z,3.63
2018-08-13T13:30:08.312Z,3.63
2018-08-13T13:32:36.600Z,3.50
2018-08-13T13:35:05.903Z,3.53
2018-08-13T13:37:34.516Z,3.63
2018-08-13T13:40:02.744Z,3.23
2018-08-13T13:42:30.967Z,3.80
2018-08-13T13:44:59.168Z,3.60
2018-08-13T13:47:27.352Z,4.90
2018-08-13T13:49:55.552Z,4.47
2018-08-13T13:52:23.758Z,3.87
2018-08-13T13:54:51.980Z,4.50
2018-08-13T13:57:20.177Z,3.90
2018-08-13T13:59:48.380Z,3.40
2018-08-13T14:02:16.576Z,4.07
2018-08-13T14:04:44.779Z,4.13
2018-08-13T14:07:12.962Z,3.47
2018-08-13T14:09:41.160Z,4.20
2018-08-13T14:12:09.422Z,3.80
2018-08-13T14:14:37.608Z,3.93
2018-08-13T14:17:05.876Z,4.47
2018-08-13T14:19:34.162Z,4.47
2018-08-13T14:22:02.547Z,3.90
2018-08-13T14:24:30.763Z,4.33
2018-08-13T14:26:58.963Z,4.17
2018-08-13T14:29:27.160Z,5.43
2018-08-13T14:31:55.354Z,4.60
2018-08-13T14:34:23.583Z,4.00
2018-08-13T14:36:51.751Z,3.50
2018-08-13T14:39:19.929Z,6.07
2018-08-13T14:41:48.128Z,3.63
2018-08-13T14:44:16.320Z,4.20
2018-08-13T14:46:45.108Z,4.40
2018-08-13T14:49:13.377Z,4.37
2018-08-13T14:51:41.580Z,4.27
2018-08-13T14:54:09.824Z,3.50
2018-08-13T14:56:38.147Z,4.20
2018-08-13T14:59:06.859Z,3.10
2018-08-13T15:01:35.091Z,2.43
2018-08-13T15:04:03.297Z,3.77
2018-08-13T15:06:31.548Z,2.87
2018-08-13T15:08:59.736Z,3.73
2018-08-13T15:11:33.440Z,3.93
2018-08-13T15:14:01.667Z,4.00
2018-08-13T15:16:29.969Z,3.90
2018-08-13T15:18:58.165Z,3.20
2018-08-13T15:21:26.384Z,3.43
2018-08-13T15:23:54.564Z,3.30
2018-08-13T15:26:22.792Z,3.53
2018-08-13T15:28:50.964Z,2.67
2018-08-13T15:31:19.184Z,3.50
2018-08-13T15:33:47.396Z,3.43
2018-08-13T15:36:15.663Z,2.87
2018-08-13T15:38:45.062Z,2.40
2018-08-13T15:41:13.338Z,2.47
2018-08-13T15:43:41.592Z,2.13
2018-08-13T15:46:09.811Z,2.20
2018-08-13T15:48:38.018Z,2.07
2018-08-13T15:51:06.526Z,2.33
2018-08-13T15:53:35.563Z,2.03
2018-08-13T15:56:03.792Z,2.03
2018-08-13T15:58:32.019Z,2.43
2018-08-13T16:01:00.224Z,2.07
2018-08-13T16:03:28.460Z,2.53
2018-08-13T16:05:56.668Z,2.70
2018-08-13T16:08:25.074Z,1.93
2018-08-13T16:10:53.451Z,2.53
2018-08-13T16:13:21.700Z,2.87
2018-08-13T16:15:49.913Z,2.73
2018-08-13T16:18:18.097Z,2.77
2018-08-13T16:20:46.295Z,3.07
2018-08-13T16:23:14.488Z,3.10
2018-08-13T16:25:42.698Z,3.37
2018-08-13T16:28:10.973Z,3.23
2018-08-13T16:30:39.288Z,2.60
2018-08-13T16:33:07.539Z,3.27
2018-08-13T16:35:35.728Z,3.20
2018-08-13T16:38:03.911Z,3.90
2018-08-13T16:40:32.132Z,4.10
2018-08-13T16:43:00.308Z,4.00
2018-08-13T16:45:28.592Z,8.00
2018-08-13T16:47:56.817Z,4.27
2018-08-13T16:50:28.183Z,3.87
2018-08-13T16:52:56.693Z,5.13
2018-08-13T16:55:25.766Z,5.60
2018-08-13T16:57:53.956Z,4.50
2018-08-13T17:00:24.803Z,4.70
2018-08-13T17:02:53.027Z,5.03
2018-08-13T17:05:21.271Z,7.00
2018-08-13T17:07:49.476Z,3.97
2018-08-13T17:10:26.625Z,4.00
2018-08-13T17:12:55.407Z,4.10
2018-08-13T17:15:24.249Z,5.40
2018-08-13T17:17:53.857Z,4.60
2018-08-13T17:20:25.756Z,4.00
2018-08-13T17:22:53.968Z,4.40
2018-08-13T17:25:22.245Z,4.57
2018-08-13T17:27:50.477Z,4.00
2018-08-13T17:30:20.698Z,5.20
2018-08-13T17:32:50.880Z,4.80
2018-08-13T17:35:20.819Z,5.00
2018-08-13T17:37:50.051Z,5.07
2018-08-13T17:40:20.792Z,5.33
2018-08-13T17:42:50.679Z,5.40
2018-08-13T17:45:18.731Z,6.47
2018-08-13T17:47:47.458Z,6.43
2018-08-13T17:50:17.091Z,5.10
2018-08-13T17:52:45.595Z,5.97
2018-08-13T17:55:14.234Z,6.13
2018-08-13T17:57:42.988Z,6.10
2018-08-13T18:00:14.197Z,5.60
2018-08-13T18:02:42.831Z,5.17
2018-08-13T18:05:14.288Z,6.00
2018-08-13T18:07:42.827Z,5.80
2018-08-13T18:10:14.024Z,5.37
2018-08-13T18:12:42.331Z,6.33
2018-08-13T18:15:13.920Z,5.33
2018-08-13T18:17:42.523Z,5.43
2018-08-13T18:20:11.429Z,6.60
2018-08-13T18:22:39.620Z,6.30
2018-08-13T18:25:09.715Z,5.90
2018-08-13T18:27:38.303Z,5.90
2018-08-13T18:30:08.938Z,7.27
2018-08-13T18:32:37.171Z,6.30
2018-08-13T18:35:05.756Z,6.77
2018-08-13T18:37:34.167Z,6.03
2018-08-13T18:40:02.320Z,4.67
2018-08-13T18:42:30.608Z,4.53
2018-08-13T18:44:58.832Z,5.23
2018-08-13T18:47:27.013Z,4.67
2018-08-13T18:49:55.225Z,4.10
2018-08-13T18:52:23.543Z,4.97
2018-08-13T18:54:51.735Z,4.23
2018-08-13T18:57:19.936Z,4.37
2018-08-13T18:59:48.478Z,4.30
2018-08-13T19:02:16.821Z,4.30
2018-08-13T19:04:45.094Z,3.90
2018-08-13T19:07:13.203Z,3.87
2018-08-13T19:09:41.406Z,3.60
2018-08-13T19:12:09.625Z,5.77
2018-08-13T19:14:37.853Z,4.40
2018-08-13T19:17:06.676Z,5.20
2018-08-13T19:19:34.900Z,5.70
2018-08-13T19:22:03.821Z,4.60
2018-08-13T19:24:32.072Z,5.33
2018-08-13T19:27:00.762Z,5.70
2018-08-13T19:29:28.951Z,7.43
2018-08-13T19:31:57.177Z,7.07
2018-08-13T19:34:25.378Z,7.97
2018-08-13T19:36:53.649Z,6.40
2018-08-13T19:39:21.873Z,8.70
2018-08-13T19:41:50.059Z,5.77
2018-08-13T19:44:18.291Z,6.93
2018-08-13T19:46:46.564Z,5.77
2018-08-13T19:49:14.880Z,6.47
2018-08-13T19:51:43.076Z,5.53
2018-08-13T19:54:11.284Z,6.43
2018-08-13T19:56:39.525Z,5.87
2018-08-13T19:59:07.884Z,5.60
2018-08-13T20:01:36.060Z,5.00
2018-08-13T20:04:04.332Z,5.70
2018-08-13T20:06:32.620Z,4.90
2018-08-13T20:09:00.863Z,5.47
2018-08-13T20:11:29.046Z,6.20
2018-08-13T20:13:57.256Z,5.30
2018-08-13T20:16:25.516Z,7.00
2018-08-13T20:18:53.987Z,5.50
2018-08-13T20:21:22.325Z,8.33
2018-08-13T20:23:50.524Z,6.40
2018-08-13T20:26:18.943Z,5.90
2018-08-13T20:28:47.235Z,6.17
2018-08-13T20:31:16.134Z,4.53
2018-08-13T20:33:44.340Z,5.07
2018-08-13T20:36:12.700Z,4.97
2018-08-13T20:38:40.943Z,5.13
2018-08-13T20:41:09.178Z,5.60
2018-08-13T20:43:37.398Z,4.90
2018-08-13T20:46:05.737Z,5.40
2018-08-13T20:48:33.958Z,4.70
2018-08-13T20:51:02.176Z,5.67
2018-08-13T20:53:30.410Z,6.13
2018-08-13T20:55:58.680Z,5.63
2018-08-13T20:58:26.884Z,5.57
2018-08-13T21:00:55.090Z,5.53
2018-08-13T21:03:23.324Z,5.53
2018-08-13T21:05:51.568Z,5.20
2018-08-13T21:08:19.796Z,6.60
2018-08-13T21:10:48.004Z,6.97
2018-08-13T21:13:16.216Z,5.60
2018-08-13T21:15:44.463Z,7.63
2018-08-13T21:18:12.845Z,7.03
2018-08-13T21:20:41.047Z,6.97
2018-08-13T21:23:09.292Z,6.20
2018-08-13T21:25:37.626Z,6.40
2018-08-13T21:28:05.731Z,6.63
2018-08-13T21:30:33.953Z,6.40
2018-08-13T21:33:02.213Z,6.70
2018-08-13T21:35:30.444Z,6.83
2018-08-13T21:37:58.640Z,6.80
2018-08-13T21:40:26.836Z,6.87
2018-08-13T21:42:55.165Z,6.60
2018-08-13T21:45:23.363Z,6.53
2018-08-13T21:47:51.564Z,6.30
2018-08-13T21:50:21.024Z,6.50
2018-08-13T21:52:49.773Z,6.63
2018-08-13T21:55:18.080Z,7.80
2018-08-13T21:57:46.295Z,7.20
2018-08-13T22:00:40.808Z,6.70
2018-08-13T22:03:10.037Z,6.53
2018-08-13T22:05:38.322Z,6.70
2018-08-13T22:08:06.539Z,6.10
2018-08-13T22:10:34.754Z,6.10
2018-08-13T22:13:02.955Z,7.00
2018-08-13T22:15:32.425Z,8.30
2018-08-13T22:18:02.162Z,7.07
2018-08-13T22:20:31.419Z,7.33
2018-08-13T22:23:00.846Z,6.30
2018-08-13T22:25:31.564Z,8.63
2018-08-13T22:28:00.143Z,6.67
2018-08-13T22:30:28.719Z,6.13
2018-08-13T22:32:56.944Z,6.60
2018-08-13T22:35:26.276Z,6.27
2018-08-13T22:37:54.802Z,6.77
2018-08-13T22:40:22.980Z,5.33
2018-08-13T22:42:51.672Z,5.23
2018-08-13T22:45:21.391Z,6.67
2018-08-13T22:47:49.600Z,6.73
2018-08-13T22:50:17.892Z,6.03
2018-08-13T22:52:46.079Z,5.47
2018-08-13T22:55:16.004Z,5.83
2018-08-13T22:57:44.252Z,5.33
2018-08-13T23:00:14.387Z,6.00
2018-08-13T23:02:43.586Z,5.67
2018-08-13T23:05:27.336Z,5.77
2018-08-13T23:07:55.627Z,6.50
2018-08-13T23:10:24.796Z,6.27
2018-08-13T23:12:54.498Z,7.30
2018-08-13T23:15:22.815Z,8.50
2018-08-13T23:17:51.590Z,6.30
2018-08-13T23:20:25.671Z,6.30
2018-08-13T23:23:01.727Z,6.83
2018-08-13T23:25:30.652Z,6.83
2018-08-13T23:28:00.036Z,6.20
2018-08-13T23:30:28.423Z,6.37
2018-08-13T23:32:57.404Z,5.90
2018-08-13T23:35:26.198Z,5.87
2018-08-13T23:37:54.549Z,6.60
2018-08-13T23:40:23.181Z,5.63
2018-08-13T23:42:51.376Z,5.20
2018-08-13T23:45:22.389Z,5.77
2018-08-13T23:47:50.604Z,6.97
2018-08-13T23:50:22.063Z,7.60
2018-08-13T23:52:51.488Z,6.57
2018-08-13T23:55:25.581Z,8.37
2018-08-13T23:57:54.107Z,8.03
